createdAt,value
2019-03-20T00:01:19.962Z,98261.11
2019-03-20T00:03:49.046Z,98261.31
2019-03-20T00:06:18.126Z,98270.30
2019-03-20T00:08:47.217Z,98273.81
2019-03-20T00:11:16.302Z,98280.06
2019-03-20T00:13:45.390Z,98277.32
2019-03-20T00:16:14.609Z,98284.58
2019-03-20T00:18:43.703Z,98285.23
2019-03-20T00:21:12.796Z,98283.86
2019-03-20T00:23:41.888Z,98292.36
2019-03-20T00:26:10.962Z,98286.63
2019-03-20T00:28:40.950Z,98284.74
2019-03-20T00:31:10.023Z,98284.72
2019-03-20T00:33:39.116Z,98282.94
2019-03-20T00:36:08.193Z,98274.44
2019-03-20T00:38:37.278Z,98274.62
2019-03-20T00:41:06.341Z,98260.95
2019-03-20T00:43:35.426Z,98256.31
2019-03-20T00:46:04.494Z,98257.88
2019-03-20T00:48:33.591Z,98254.06
2019-03-20T00:51:02.661Z,98252.70
2019-03-20T00:53:31.736Z,98256.80
2019-03-20T00:56:00.827Z,98247.70
2019-03-20T00:58:29.931Z,98252.84
2019-03-20T01:00:59.023Z,98252.19
2019-03-20T01:03:28.093Z,98248.08
2019-03-20T01:05:57.192Z,98250.11
2019-03-20T01:08:26.265Z,98248.78
2019-03-20T01:10:55.354Z,98246.84
2019-03-20T01:13:24.627Z,98248.18
2019-03-20T01:15:53.720Z,98252.80
2019-03-20T01:18:22.785Z,98255.95
2019-03-20T01:20:51.890Z,98256.86
2019-03-20T01:23:20.954Z,98250.77
2019-03-20T01:25:50.058Z,98255.95
2019-03-20T01:28:19.149Z,98254.00
2019-03-20T01:30:48.238Z,98253.69
2019-03-20T01:33:17.407Z,98256.27
2019-03-20T01:35:46.492Z,98258.21
2019-03-20T01:38:15.559Z,98260.84
2019-03-20T01:40:44.671Z,98258.21
2019-03-20T01:43:13.742Z,98254.83
2019-03-20T01:45:42.920Z,98262.59
2019-03-20T01:48:12.048Z,98259.84
2019-03-20T01:50:41.125Z,98269.20
2019-03-20T01:53:10.243Z,98268.89
2019-03-20T01:55:39.321Z,98264.97
2019-03-20T01:58:08.450Z,98270.72
2019-03-20T02:00:37.714Z,98271.91
2019-03-20T02:03:06.825Z,98271.70
2019-03-20T02:05:36.707Z,98261.16
2019-03-20T02:08:05.781Z,98265.19
2019-03-20T02:10:34.848Z,98265.08
2019-03-20T02:13:03.962Z,98274.23
2019-03-20T02:15:39.007Z,98269.30
2019-03-20T02:18:03.852Z,98270.41
2019-03-20T02:20:32.921Z,98269.09
2019-03-20T02:23:02.027Z,98265.73
2019-03-20T02:25:32.400Z,98268.00
2019-03-20T02:28:01.684Z,98266.40
2019-03-20T02:30:30.749Z,98265.64
2019-03-20T02:32:59.853Z,98266.41
2019-03-20T02:35:28.929Z,98265.96
2019-03-20T02:37:57.999Z,98267.24
2019-03-20T02:40:27.098Z,98275.83
2019-03-20T02:42:56.168Z,98276.22
2019-03-20T02:45:25.273Z,98272.69
2019-03-20T02:47:54.341Z,98274.97
2019-03-20T02:50:23.435Z,98273.66
2019-03-20T02:52:52.519Z,98274.04
2019-03-20T02:55:21.645Z,98266.73
2019-03-20T02:57:50.692Z,98266.27
2019-03-20T03:00:19.829Z,98271.40
2019-03-20T03:02:48.894Z,98273.48
2019-03-20T03:05:18.620Z,98274.52
2019-03-20T03:07:47.713Z,98270.13
2019-03-20T03:10:16.930Z,98272.48
2019-03-20T03:12:46.007Z,98266.68
2019-03-20T03:15:15.218Z,98270.80
2019-03-20T03:17:44.321Z,98271.16
2019-03-20T03:20:13.422Z,98273.55
2019-03-20T03:22:42.496Z,98278.09
2019-03-20T03:25:11.585Z,98275.77
2019-03-20T03:27:40.683Z,98277.36
2019-03-20T03:30:09.973Z,98281.17
2019-03-20T03:32:39.075Z,98279.52
2019-03-20T03:35:08.781Z,98281.55
2019-03-20T03:37:37.868Z,98284.84
2019-03-20T03:40:07.671Z,98281.17
2019-03-20T03:42:36.763Z,98285.13
2019-03-20T03:45:06.679Z,98273.63
2019-03-20T03:47:35.766Z,98268.52
2019-03-20T03:50:05.157Z,98274.72
2019-03-20T03:52:34.242Z,98279.47
2019-03-20T03:55:03.417Z,98284.95
2019-03-20T03:57:32.555Z,98280.20
2019-03-20T04:00:01.650Z,98276.45
2019-03-20T04:02:30.719Z,98272.96
2019-03-20T04:04:59.799Z,98270.54
2019-03-20T04:07:28.896Z,98263.33
2019-03-20T04:09:57.965Z,98268.50
2019-03-20T04:12:27.056Z,98272.30
2019-03-20T04:14:56.120Z,98281.28
2019-03-20T04:17:28.860Z,98283.25
2019-03-20T04:19:57.912Z,98279.23
2019-03-20T04:22:26.978Z,98283.97
2019-03-20T04:24:56.067Z,98288.15
2019-03-20T04:27:25.139Z,98285.05
2019-03-20T04:29:54.234Z,98281.05
2019-03-20T04:32:23.331Z,98287.73
2019-03-20T04:34:52.424Z,98288.45
2019-03-20T04:37:21.508Z,98292.45
2019-03-20T04:39:50.597Z,98295.62
2019-03-20T04:42:19.666Z,98293.02
2019-03-20T04:44:48.757Z,98294.69
2019-03-20T04:47:17.826Z,98296.12
2019-03-20T04:49:46.931Z,98302.05
2019-03-20T04:52:16.012Z,98306.59
2019-03-20T04:54:45.111Z,98313.73
2019-03-20T04:57:14.195Z,98314.22
2019-03-20T04:59:43.311Z,98321.20
2019-03-20T05:02:12.385Z,98320.81
2019-03-20T05:04:41.493Z,98330.64
2019-03-20T05:07:10.575Z,98321.02
2019-03-20T05:09:39.667Z,98327.05
2019-03-20T05:12:08.750Z,98322.95
2019-03-20T05:14:37.864Z,98324.59
2019-03-20T05:17:06.938Z,98328.50
2019-03-20T05:19:36.026Z,98329.08
2019-03-20T05:22:05.126Z,98327.89
2019-03-20T05:24:34.212Z,98322.80
2019-03-20T05:27:03.301Z,98320.61
2019-03-20T05:29:32.367Z,98328.50
2019-03-20T05:32:01.486Z,98330.66
2019-03-20T05:34:30.528Z,98335.30
2019-03-20T05:37:09.818Z,98331.13
2019-03-20T05:39:30.458Z,98333.49
2019-03-20T05:41:59.595Z,98329.33
2019-03-20T05:44:28.692Z,98336.21
2019-03-20T05:46:57.795Z,98336.20
2019-03-20T05:49:26.863Z,98341.98
2019-03-20T05:51:56.038Z,98338.66
2019-03-20T05:54:25.122Z,98347.25
2019-03-20T05:56:54.239Z,98348.00
2019-03-20T05:59:23.344Z,98338.89
2019-03-20T06:01:52.434Z,98346.44
2019-03-20T06:04:21.519Z,98351.08
2019-03-20T06:06:50.621Z,98356.19
2019-03-20T06:09:19.693Z,98351.79
2019-03-20T06:11:49.081Z,98354.32
2019-03-20T06:14:18.164Z,98355.64
2019-03-20T06:16:47.243Z,98359.38
2019-03-20T06:19:16.326Z,98361.53
2019-03-20T06:21:45.394Z,98367.48
2019-03-20T06:24:14.483Z,98368.31
2019-03-20T06:26:43.579Z,98372.78
2019-03-20T06:29:12.681Z,98377.20
2019-03-20T06:31:41.759Z,98385.03
2019-03-20T06:34:10.862Z,98382.97
2019-03-20T06:36:39.946Z,98390.93
2019-03-20T06:39:09.195Z,98388.52
2019-03-20T06:41:38.288Z,98380.23
2019-03-20T06:44:07.374Z,98375.13
2019-03-20T06:46:36.452Z,98374.28
2019-03-20T06:49:07.827Z,98362.94
2019-03-20T06:51:36.321Z,98360.86
2019-03-20T06:54:05.426Z,98363.59
2019-03-20T06:56:34.506Z,98366.72
2019-03-20T06:59:40.439Z,98363.22
2019-03-20T07:02:09.201Z,98364.72
2019-03-20T07:04:59.623Z,98370.50
2019-03-20T07:07:43.430Z,98362.47
2019-03-20T07:10:46.426Z,98367.98
2019-03-20T07:13:15.494Z,98374.88
2019-03-20T07:15:44.587Z,98377.69
2019-03-20T07:18:13.663Z,98381.05
2019-03-20T07:20:42.763Z,98386.13
2019-03-20T07:23:11.839Z,98378.34
2019-03-20T07:25:40.933Z,98385.89
2019-03-20T07:28:10.013Z,98389.28
2019-03-20T07:30:39.108Z,98391.02
2019-03-20T07:33:08.190Z,98396.58
2019-03-20T07:35:37.279Z,98396.47
2019-03-20T07:38:06.368Z,98400.03
2019-03-20T07:40:35.465Z,98398.01
2019-03-20T07:43:09.099Z,98403.53
2019-03-20T07:45:35.376Z,98405.76
2019-03-20T07:48:04.467Z,98412.10
2019-03-20T07:50:33.574Z,98412.33
2019-03-20T07:53:02.637Z,98423.84
2019-03-20T07:55:31.727Z,98418.23
2019-03-20T07:58:00.807Z,98426.62
2019-03-20T08:00:29.941Z,98424.11
2019-03-20T08:02:59.033Z,98430.98
2019-03-20T08:05:29.555Z,98432.42
2019-03-20T08:08:06.741Z,98434.95
2019-03-20T08:10:29.598Z,98439.24
2019-03-20T08:12:58.723Z,98434.09
2019-03-20T08:15:27.791Z,98442.11
2019-03-20T08:17:56.894Z,98444.05
2019-03-20T08:20:26.042Z,98449.83
2019-03-20T08:22:55.126Z,98446.29
2019-03-20T08:25:24.199Z,98454.44
2019-03-20T08:27:53.312Z,98452.53
2019-03-20T08:30:22.392Z,98456.23
2019-03-20T08:32:51.486Z,98452.20
2019-03-20T08:35:20.556Z,98454.32
2019-03-20T08:37:49.666Z,98451.38
2019-03-20T08:40:18.843Z,98454.89
2019-03-20T08:42:47.937Z,98450.53
2019-03-20T08:45:17.041Z,98446.95
2019-03-20T08:47:46.159Z,98435.56
2019-03-20T08:50:16.930Z,98433.64
2019-03-20T08:52:46.147Z,98434.78
2019-03-20T08:55:15.308Z,98437.28
2019-03-20T08:57:44.515Z,98434.86
2019-03-20T09:00:16.037Z,98429.85
2019-03-20T09:02:45.270Z,98443.67
2019-03-20T09:05:14.470Z,98438.23
2019-03-20T09:07:47.499Z,98447.48
2019-03-20T09:10:18.738Z,98444.45
2019-03-20T09:12:47.872Z,98445.94
2019-03-20T09:15:17.077Z,98455.42
2019-03-20T09:17:46.182Z,98450.94
2019-03-20T09:20:15.670Z,98466.33
2019-03-20T09:22:44.771Z,98467.34
2019-03-20T09:25:15.429Z,98463.82
2019-03-20T09:27:44.528Z,98463.36
2019-03-20T09:30:18.753Z,98461.45
2019-03-20T09:32:47.822Z,98467.98
2019-03-20T09:35:17.058Z,98466.91
2019-03-20T09:37:51.848Z,98471.77
2019-03-20T09:40:17.475Z,98461.89
2019-03-20T09:42:46.554Z,98476.30
2019-03-20T09:45:16.186Z,98469.10
2019-03-20T09:47:45.315Z,98477.06
2019-03-20T09:50:15.900Z,98480.90
2019-03-20T09:52:44.970Z,98480.34
2019-03-20T09:55:14.469Z,98480.56
2019-03-20T09:57:43.560Z,98479.73
2019-03-20T10:00:17.971Z,98477.39
2019-03-20T10:02:47.050Z,98475.02
2019-03-20T10:05:16.150Z,98479.41
2019-03-20T10:07:45.221Z,98484.18
2019-03-20T10:10:16.709Z,98473.04
2019-03-20T10:12:45.778Z,98474.45
2019-03-20T10:15:15.523Z,98477.86
2019-03-20T10:17:44.622Z,98478.63
2019-03-20T10:20:15.690Z,98479.05
2019-03-20T10:22:44.833Z,98473.19
2019-03-20T10:25:14.450Z,98480.70
2019-03-20T10:27:43.579Z,98481.91
2019-03-20T10:30:15.644Z,98476.16
2019-03-20T10:32:44.716Z,98476.13
2019-03-20T10:35:14.110Z,98469.48
2019-03-20T10:37:43.201Z,98475.67
2019-03-20T10:40:14.375Z,98470.41
2019-03-20T10:42:43.454Z,98456.27
2019-03-20T10:45:13.053Z,98459.15
2019-03-20T10:47:42.091Z,98451.84
2019-03-20T10:50:13.418Z,98451.27
2019-03-20T10:52:42.514Z,98452.53
2019-03-20T10:55:11.730Z,98449.89
2019-03-20T10:57:40.790Z,98458.38
2019-03-20T11:00:13.554Z,98453.26
2019-03-20T11:02:42.619Z,98455.89
2019-03-20T11:05:11.718Z,98456.45
2019-03-20T11:07:40.802Z,98448.21
2019-03-20T11:10:10.654Z,98452.30
2019-03-20T11:12:39.745Z,98459.80
2019-03-20T11:15:10.702Z,98459.78
2019-03-20T11:17:39.789Z,98454.11
2019-03-20T11:20:09.715Z,98451.58
2019-03-20T11:22:38.789Z,98460.61
2019-03-20T11:25:09.103Z,98456.78
2019-03-20T11:27:38.182Z,98457.45
2019-03-20T11:30:27.499Z,98446.63
2019-03-20T11:32:56.583Z,98444.55
2019-03-20T11:35:25.683Z,98451.41
2019-03-20T11:37:54.782Z,98440.97
2019-03-20T11:40:25.563Z,98439.63
2019-03-20T11:42:54.666Z,98440.17
2019-03-20T11:45:23.873Z,98436.45
2019-03-20T11:47:52.968Z,98435.28
2019-03-20T11:50:24.422Z,98434.08
2019-03-20T11:52:53.538Z,98432.24
2019-03-20T11:55:22.611Z,98430.91
2019-03-20T11:57:51.709Z,98427.67
2019-03-20T12:00:20.846Z,98423.31
2019-03-20T12:02:49.954Z,98428.61
2019-03-20T12:05:19.023Z,98424.38
2019-03-20T12:07:48.130Z,98414.55
2019-03-20T12:10:18.966Z,98417.09
2019-03-20T12:12:48.064Z,98415.72
2019-03-20T12:15:17.141Z,98423.06
2019-03-20T12:17:46.235Z,98410.16
2019-03-20T12:20:16.719Z,98405.23
2019-03-20T12:22:45.951Z,98407.53
2019-03-20T12:25:17.603Z,98408.91
2019-03-20T12:27:46.723Z,98409.02
2019-03-20T12:30:17.923Z,98403.88
2019-03-20T12:32:47.031Z,98407.15
2019-03-20T12:35:16.407Z,98412.25
2019-03-20T12:37:45.529Z,98416.38
2019-03-20T12:40:17.763Z,98417.02
2019-03-20T12:42:46.865Z,98411.95
2019-03-20T12:45:16.788Z,98404.55
2019-03-20T12:47:45.882Z,98393.81
2019-03-20T12:50:14.958Z,98395.92
2019-03-20T12:52:44.058Z,98399.55
2019-03-20T12:55:13.450Z,98399.20
2019-03-20T12:57:42.554Z,98399.03
2019-03-20T13:00:16.414Z,98394.44
2019-03-20T13:02:45.532Z,98393.56
2019-03-20T13:05:14.928Z,98399.50
2019-03-20T13:07:44.127Z,98393.58
2019-03-20T13:10:15.064Z,98389.59
2019-03-20T13:12:44.139Z,98394.35
2019-03-20T13:15:20.669Z,98394.39
2019-03-20T13:17:49.748Z,98389.20
2019-03-20T13:20:18.805Z,98388.96
2019-03-20T13:22:53.839Z,98392.27
2019-03-20T13:25:22.937Z,98387.17
2019-03-20T13:27:52.009Z,98385.64
2019-03-20T13:30:35.752Z,98387.91
2019-03-20T13:33:04.879Z,98394.06
2019-03-20T13:35:34.005Z,98386.08
2019-03-20T13:38:03.072Z,98387.22
2019-03-20T13:40:32.170Z,98379.08
2019-03-20T13:43:01.254Z,98383.84
2019-03-20T13:45:30.385Z,98376.87
2019-03-20T13:47:59.458Z,98386.14
2019-03-20T13:50:28.549Z,98380.42
2019-03-20T13:52:57.635Z,98375.98
2019-03-20T13:55:26.725Z,98370.83
2019-03-20T13:57:55.807Z,98365.47
2019-03-20T14:00:24.941Z,98359.86
2019-03-20T14:02:54.018Z,98369.17
2019-03-20T14:05:23.117Z,98364.98
2019-03-20T14:07:52.209Z,98368.62
2019-03-20T14:10:25.419Z,98366.73
2019-03-20T14:12:52.246Z,98378.69
2019-03-20T14:15:21.464Z,98369.63
2019-03-20T14:17:50.549Z,98376.66
2019-03-20T14:20:23.792Z,98370.91
2019-03-20T14:22:52.846Z,98372.30
2019-03-20T14:25:22.070Z,98360.41
2019-03-20T14:27:51.273Z,98364.05
2019-03-20T14:30:22.143Z,98371.56
2019-03-20T14:32:51.218Z,98365.06
2019-03-20T14:35:20.315Z,98375.33
2019-03-20T14:37:49.391Z,98376.35
2019-03-20T14:40:20.336Z,98370.37
2019-03-20T14:42:49.466Z,98377.52
2019-03-20T14:45:18.577Z,98371.70
2019-03-20T14:47:47.655Z,98382.56
2019-03-20T14:50:18.341Z,98374.95
2019-03-20T14:52:47.434Z,98372.63
2019-03-20T14:55:16.546Z,98360.32
2019-03-20T14:57:45.656Z,98365.64
2019-03-20T15:00:19.737Z,98374.55
2019-03-20T15:02:48.843Z,98368.83
2019-03-20T15:05:17.915Z,98369.73
2019-03-20T15:07:47.022Z,98370.63
2019-03-20T15:10:17.400Z,98378.16
2019-03-20T15:12:46.588Z,98379.39
2019-03-20T15:15:27.784Z,98370.63
2019-03-20T15:17:56.886Z,98370.41
2019-03-20T15:20:25.965Z,98378.30
2019-03-20T15:22:55.064Z,98379.44
2019-03-20T15:25:24.154Z,98380.86
2019-03-20T15:27:53.257Z,98374.12
2019-03-20T15:30:22.349Z,98372.02
2019-03-20T15:32:51.444Z,98376.77
2019-03-20T15:35:20.536Z,98375.84
2019-03-20T15:37:49.622Z,98386.88
2019-03-20T15:40:18.761Z,98385.06
2019-03-20T15:42:47.883Z,98378.05
2019-03-20T15:45:16.971Z,98374.87
2019-03-20T15:47:46.294Z,98382.59
2019-03-20T15:50:16.307Z,98378.52
2019-03-20T15:52:45.419Z,98391.11
2019-03-20T15:55:17.014Z,98383.74
2019-03-20T15:57:46.090Z,98375.36
2019-03-20T16:00:17.005Z,98379.72
2019-03-20T16:02:46.386Z,98379.00
2019-03-20T16:05:15.493Z,98385.14
2019-03-20T16:07:44.590Z,98387.90
2019-03-20T16:10:18.396Z,98381.10
2019-03-20T16:12:47.477Z,98381.91
2019-03-20T16:15:17.946Z,98378.09
2019-03-20T16:17:47.144Z,98378.07
2019-03-20T16:20:16.659Z,98374.72
2019-03-20T16:22:45.733Z,98382.95
2019-03-20T16:25:15.124Z,98379.02
2019-03-20T16:27:44.407Z,98383.38
2019-03-20T16:30:16.236Z,98376.05
2019-03-20T16:32:45.309Z,98379.22
2019-03-20T16:35:14.400Z,98380.19
2019-03-20T16:37:43.477Z,98376.63
2019-03-20T16:40:17.666Z,98373.02
2019-03-20T16:42:46.777Z,98374.44
2019-03-20T16:45:19.106Z,98370.38
2019-03-20T16:47:48.195Z,98378.25
2019-03-20T16:50:17.644Z,98376.00
2019-03-20T16:52:46.843Z,98372.61
2019-03-20T16:55:16.261Z,98369.63
2019-03-20T16:57:45.486Z,98374.65
2019-03-20T17:00:17.466Z,98371.33
2019-03-20T17:02:46.568Z,98373.70
2019-03-20T17:05:15.655Z,98374.05
2019-03-20T17:07:44.754Z,98373.52
2019-03-20T17:10:16.574Z,98382.63
2019-03-20T17:12:45.689Z,98382.94
2019-03-20T17:15:20.258Z,98389.55
2019-03-20T17:17:49.370Z,98392.53
2019-03-20T17:20:18.462Z,98389.61
2019-03-20T17:22:47.568Z,98383.19
2019-03-20T17:25:16.645Z,98381.84
2019-03-20T17:27:45.747Z,98385.00
2019-03-20T17:30:34.525Z,98382.34
2019-03-20T17:33:03.654Z,98384.74
2019-03-20T17:35:32.731Z,98393.17
2019-03-20T17:38:01.826Z,98390.84
2019-03-20T17:40:30.894Z,98385.23
2019-03-20T17:42:59.987Z,98392.51
2019-03-20T17:45:29.435Z,98397.62
2019-03-20T17:47:58.524Z,98405.91
2019-03-20T17:50:28.301Z,98414.55
2019-03-20T17:52:57.386Z,98413.91
2019-03-20T17:55:26.682Z,98412.24
2019-03-20T17:57:55.874Z,98424.14
2019-03-20T18:00:40.010Z,98418.52
2019-03-20T18:03:09.211Z,98414.38
2019-03-20T18:05:38.310Z,98425.52
2019-03-20T18:08:07.426Z,98428.70
2019-03-20T18:10:36.526Z,98428.19
2019-03-20T18:13:06.351Z,98431.36
2019-03-20T18:15:35.527Z,98433.67
2019-03-20T18:18:04.872Z,98430.69
2019-03-20T18:20:33.968Z,98432.75
2019-03-20T18:23:03.072Z,98437.91
2019-03-20T18:25:32.170Z,98436.09
2019-03-20T18:28:01.257Z,98435.91
2019-03-20T18:30:32.915Z,98444.02
2019-03-20T18:33:02.217Z,98440.58
2019-03-20T18:35:31.418Z,98440.32
2019-03-20T18:38:01.212Z,98438.59
2019-03-20T18:40:30.298Z,98441.78
2019-03-20T18:42:59.379Z,98440.59
2019-03-20T18:45:28.573Z,98443.83
2019-03-20T18:47:57.646Z,98450.09
2019-03-20T18:50:26.741Z,98441.59
2019-03-20T18:52:55.800Z,98452.52
2019-03-20T18:55:24.883Z,98455.89
2019-03-20T18:57:53.975Z,98452.09
2019-03-20T19:00:24.528Z,98458.05
2019-03-20T19:02:54.528Z,98455.38
2019-03-20T19:05:32.758Z,98460.70
2019-03-20T19:08:03.117Z,98461.97
2019-03-20T19:10:32.256Z,98454.81
2019-03-20T19:13:01.378Z,98462.98
2019-03-20T19:15:30.449Z,98464.88
2019-03-20T19:17:59.552Z,98463.98
2019-03-20T19:20:28.640Z,98458.09
2019-03-20T19:22:57.778Z,98463.09
2019-03-20T19:25:26.824Z,98466.83
2019-03-20T19:27:55.912Z,98463.94
2019-03-20T19:30:25.003Z,98464.97
2019-03-20T19:32:54.090Z,98466.14
2019-03-20T19:35:23.168Z,98471.81
2019-03-20T19:37:52.331Z,98473.88
2019-03-20T19:40:21.410Z,98466.75
2019-03-20T19:42:50.697Z,98474.34
2019-03-20T19:45:19.866Z,98476.06
2019-03-20T19:47:48.934Z,98475.53
2019-03-20T19:50:18.164Z,98481.06
2019-03-20T19:52:47.258Z,98476.45
2019-03-20T19:55:16.330Z,98486.42
2019-03-20T19:57:45.423Z,98487.34
2019-03-20T20:00:15.334Z,98483.27
2019-03-20T20:02:44.412Z,98493.61
2019-03-20T20:05:16.025Z,98487.72
2019-03-20T20:07:44.517Z,98491.77
2019-03-20T20:10:13.732Z,98490.89
2019-03-20T20:12:42.798Z,98492.81
2019-03-20T20:15:14.401Z,98499.31
2019-03-20T20:17:43.478Z,98499.63
2019-03-20T20:20:14.239Z,98499.26
2019-03-20T20:22:43.314Z,98495.57
2019-03-20T20:25:13.620Z,98494.28
2019-03-20T20:27:42.684Z,98496.93
2019-03-20T20:30:13.890Z,98491.48
2019-03-20T20:32:42.978Z,98495.30
2019-03-20T20:35:12.689Z,98498.92
2019-03-20T20:37:41.800Z,98502.61
2019-03-20T20:40:12.720Z,98503.87
2019-03-20T20:42:43.199Z,98509.44
2019-03-20T20:45:13.161Z,98511.81
2019-03-20T20:47:42.239Z,98510.62
2019-03-20T20:50:11.633Z,98519.25
2019-03-20T20:52:40.727Z,98515.49
2019-03-20T20:55:10.868Z,98518.34
2019-03-20T20:57:39.959Z,98512.67
2019-03-20T21:00:12.958Z,98517.15
2019-03-20T21:02:42.049Z,98513.05
2019-03-20T21:05:12.596Z,98509.23
2019-03-20T21:07:41.682Z,98512.72
2019-03-20T21:10:11.817Z,98521.66
2019-03-20T21:12:42.687Z,98513.03
2019-03-20T21:15:37.625Z,98517.50
2019-03-20T21:18:34.393Z,98517.22
2019-03-20T21:21:04.089Z,98521.67
2019-03-20T21:23:58.918Z,98516.98
2019-03-20T21:26:28.560Z,98520.70
2019-03-20T21:29:53.449Z,98521.24
2019-03-20T21:32:32.663Z,98521.41
2019-03-20T21:35:41.274Z,98517.34
2019-03-20T21:38:12.754Z,98515.80
2019-03-20T21:41:07.016Z,98532.09
2019-03-20T21:44:15.569Z,98524.30
2019-03-20T21:47:19.902Z,98527.30
2019-03-20T21:49:49.680Z,98519.80
2019-03-20T21:52:19.304Z,98529.43
2019-03-20T21:55:28.290Z,98529.91
2019-03-20T21:58:21.984Z,98530.06
2019-03-20T22:01:37.177Z,98538.57
2019-03-20T22:04:06.771Z,98538.91
2019-03-20T22:07:21.522Z,98535.77
2019-03-20T22:10:33.047Z,98529.84
2019-03-20T22:13:26.438Z,98532.95
2019-03-20T22:16:51.238Z,98525.69
2019-03-20T22:19:49.228Z,98521.20
2019-03-20T22:22:47.914Z,98520.22
2019-03-20T22:25:52.860Z,98513.27
2019-03-20T22:28:53.028Z,98513.59
2019-03-20T22:31:22.665Z,98517.25
2019-03-20T22:34:44.498Z,98516.74
2019-03-20T22:37:14.494Z,98508.29
2019-03-20T22:40:35.662Z,98504.67
2019-03-20T22:43:30.598Z,98509.80
2019-03-20T22:46:55.829Z,98510.97
2019-03-20T22:49:58.083Z,98512.31
2019-03-20T22:53:26.052Z,98511.45
2019-03-20T22:56:33.691Z,98512.30
2019-03-20T22:59:03.310Z,98513.30
2019-03-20T23:01:54.854Z,98509.64
2019-03-20T23:04:36.414Z,98512.45
2019-03-20T23:07:06.064Z,98515.27
2019-03-20T23:09:35.685Z,98510.16
2019-03-20T23:12:08.290Z,98511.31
2019-03-20T23:14:37.912Z,98511.96
2019-03-20T23:17:07.512Z,98508.98
2019-03-20T23:19:37.898Z,98505.69
2019-03-20T23:22:07.554Z,98505.35
2019-03-20T23:24:37.168Z,98499.56
2019-03-20T23:27:09.479Z,98501.04
2019-03-20T23:29:39.106Z,98504.01
2019-03-20T23:32:08.707Z,98499.37
2019-03-20T23:34:39.628Z,98499.21
2019-03-20T23:37:09.248Z,98495.91
2019-03-20T23:39:38.850Z,98494.41
2019-03-20T23:42:09.098Z,98494.75
2019-03-20T23:44:38.729Z,98485.63
2019-03-20T23:47:08.370Z,98488.77
2019-03-20T23:49:37.974Z,98488.28
2019-03-20T23:52:07.593Z,98489.78
2019-03-20T23:54:48.863Z,98488.77
2019-03-20T23:57:19.061Z,98494.06
2019-03-20T23:59:49.098Z,98493.09
